Time;durP1;ratioP1;P1;durP2;ratioP2;P2;SDS_P1;SDS_P2;PMS_P1;PMS_P2;Temp;Humidity;BMP_temperature;BMP_pressure;BME280_temperature;BME280_humidity;BME280_pressure;Samples;Min_cycle;Max_cycle;Signal;HPM_P1;HPM_P2
2022/09/17 00:01:37;;;;;;;5.10;2.70;;;11.50;99.90;;;;;;5076019;28;20480;-74
2022/09/17 00:04:04;;;;;;;2.93;2.40;;;11.60;99.90;;;;;;5076367;28;20446;-74
2022/09/17 00:06:32;;;;;;;4.40;2.03;;;11.60;99.90;;;;;;5076930;28;20811;-73
2022/09/17 00:08:59;;;;;;;5.67;3.27;;;11.60;99.90;;;;;;5076098;28;20515;-73
2022/09/17 00:11:28;;;;;;;4.67;2.50;;;11.60;99.90;;;;;;5075879;28;20475;-74
2022/09/17 00:13:58;;;;;;;4.07;2.40;;;11.60;99.90;;;;;;5076175;28;21018;-75
2022/09/17 00:16:28;;;;;;;7.53;2.50;;;11.60;99.90;;;;;;5075999;28;20469;-74
2022/09/17 00:18:55;;;;;;;7.47;2.70;;;11.60;99.90;;;;;;5075389;28;20452;-74
2022/09/17 00:21:22;;;;;;;6.73;3.10;;;11.60;99.90;;;;;;5074965;28;20453;-74
2022/09/17 00:23:52;;;;;;;5.00;3.23;;;11.60;99.90;;;;;;5075697;28;20473;-74
2022/09/17 00:26:19;;;;;;;3.20;2.40;;;11.70;99.90;;;;;;5076700;28;20415;-74
2022/09/17 00:28:49;;;;;;;4.40;2.60;;;11.70;99.90;;;;;;5077107;28;20451;-74
2022/09/17 00:31:17;;;;;;;7.60;4.23;;;11.70;99.90;;;;;;5076372;28;20839;-74
2022/09/17 00:33:44;;;;;;;6.93;2.57;;;11.70;99.90;;;;;;5075954;28;20464;-74
2022/09/17 00:36:11;;;;;;;4.03;2.70;;;11.70;99.90;;;;;;5075635;28;20533;-74
2022/09/17 00:38:38;;;;;;;3.30;2.33;;;11.70;99.90;;;;;;5075733;28;20426;-74
2022/09/17 00:41:05;;;;;;;7.60;2.93;;;11.70;99.90;;;;;;5075569;28;20430;-74
2022/09/17 00:43:39;;;;;;;4.37;2.80;;;11.70;99.90;;;;;;5075767;28;20881;-74
2022/09/17 00:46:15;;;;;;;7.53;2.57;;;11.70;99.90;;;;;;5075034;28;20429;-74
2022/09/17 00:48:44;;;;;;;3.67;2.80;;;11.70;99.90;;;;;;5075641;28;20818;-74
2022/09/17 00:51:14;;;;;;;3.53;2.47;;;11.80;99.90;;;;;;5075221;28;20453;-74
2022/09/17 00:53:41;;;;;;;6.97;2.63;;;11.80;99.90;;;;;;5074736;28;20537;-74
2022/09/17 00:56:21;;;;;;;9.30;2.60;;;11.80;99.90;;;;;;5075214;28;20832;-74
2022/09/17 00:58:48;;;;;;;5.00;2.70;;;11.80;99.90;;;;;;5074824;28;20481;-74
2022/09/17 01:01:15;;;;;;;4.33;2.27;;;11.80;99.90;;;;;;5074689;28;20445;-74
2022/09/17 01:03:43;;;;;;;9.33;3.53;;;11.80;99.90;;;;;;5075116;28;20469;-74
2022/09/17 01:06:17;;;;;;;3.90;2.73;;;11.80;99.90;;;;;;5074804;28;20419;-73
2022/09/17 01:08:57;;;;;;;5.20;2.67;;;11.80;99.90;;;;;;5074993;28;20512;-74
2022/09/17 01:11:51;;;;;;;6.57;3.00;;;11.80;99.90;;;;;;5075196;28;20480;-74
2022/09/17 01:14:32;;;;;;;6.47;2.60;;;11.90;99.90;;;;;;5074963;28;20468;-74
2022/09/17 01:17:17;;;;;;;7.77;2.93;;;11.90;99.90;;;;;;5075140;28;20845;-74
2022/09/17 01:20:18;;;;;;;10.60;3.23;;;11.90;99.90;;;;;;5074726;28;20433;-74
2022/09/17 01:22:59;;;;;;;6.43;3.73;;;12.00;99.90;;;;;;5075923;28;20436;-74
2022/09/17 01:25:32;;;;;;;4.90;2.70;;;11.90;99.90;;;;;;5074681;28;20500;-74
2022/09/17 01:28:18;;;;;;;6.60;2.90;;;11.90;99.90;;;;;;5074193;28;20433;-74
2022/09/17 01:31:13;;;;;;;4.33;2.63;;;12.00;99.90;;;;;;5074382;28;20444;-74
2022/09/17 01:33:44;;;;;;;9.60;3.23;;;12.00;99.90;;;;;;5074327;28;20465;-74
2022/09/17 01:36:23;;;;;;;4.77;2.27;;;12.00;99.90;;;;;;5074435;28;20465;-74
2022/09/17 01:38:55;;;;;;;12.47;2.80;;;12.00;99.90;;;;;;5074203;28;20926;-74
2022/09/17 01:41:31;;;;;;;4.63;3.83;;;11.90;99.90;;;;;;5073901;28;20942;-74
2022/09/17 01:44:02;;;;;;;6.67;2.60;;;11.90;99.90;;;;;;5074354;28;20444;-74
2022/09/17 01:46:35;;;;;;;5.10;2.87;;;11.90;99.90;;;;;;5074170;28;20432;-74
2022/09/17 01:49:05;;;;;;;4.10;2.87;;;12.00;99.90;;;;;;5074176;28;20433;-74
2022/09/17 01:51:37;;;;;;;5.17;2.50;;;12.00;99.90;;;;;;5074072;28;20433;-74
2022/09/17 01:54:07;;;;;;;9.40;3.00;;;12.00;99.90;;;;;;5086377;22;20481;-77
2022/09/17 01:56:38;;;;;;;2.60;2.40;;;12.00;99.90;;;;;;5073479;28;20460;-77
2022/09/17 01:59:11;;;;;;;5.70;3.10;;;12.00;99.90;;;;;;5073715;28;20836;-77
2022/09/17 02:01:43;;;;;;;6.13;2.37;;;12.00;99.90;;;;;;5073906;28;20437;-77
2022/09/17 02:04:14;;;;;;;7.20;3.03;;;12.10;99.90;;;;;;5073710;28;20837;-77
2022/09/17 02:06:46;;;;;;;8.07;3.77;;;12.10;99.90;;;;;;5073913;28;20479;-77
2022/09/17 02:09:17;;;;;;;5.50;2.90;;;12.00;99.90;;;;;;5073633;28;20428;-77
2022/09/17 02:11:57;;;;;;;4.87;3.03;;;12.00;99.90;;;;;;5073634;28;20440;-77
2022/09/17 02:14:29;;;;;;;6.43;2.77;;;12.00;99.90;;;;;;5074308;28;20456;-77
2022/09/17 02:17:03;;;;;;;4.70;2.77;;;12.00;99.90;;;;;;5073539;28;20465;-77
2022/09/17 02:19:35;;;;;;;7.17;3.40;;;12.00;99.90;;;;;;5073500;28;20429;-77
2022/09/17 02:22:05;;;;;;;6.73;3.10;;;12.00;99.90;;;;;;5073502;28;20433;-77
2022/09/17 02:24:42;;;;;;;6.40;2.80;;;12.00;99.90;;;;;;5073594;28;21151;-77
2022/09/17 02:27:17;;;;;;;9.37;3.20;;;12.00;99.90;;;;;;5073756;28;20428;-77
2022/09/17 02:29:44;;;;;;;9.97;3.07;;;11.90;99.90;;;;;;5073553;28;20531;-78
2022/09/17 02:32:13;;;;;;;7.87;3.47;;;11.90;99.90;;;;;;5073120;28;20444;-77
2022/09/17 02:34:41;;;;;;;5.97;4.93;;;11.80;99.90;;;;;;5073338;28;20460;-77
2022/09/17 02:37:09;;;;;;;8.30;4.20;;;11.90;99.90;;;;;;5073420;28;20833;-78
2022/09/17 02:39:36;;;;;;;14.40;6.70;;;11.90;99.90;;;;;;5073470;28;20514;-78
2022/09/17 02:42:12;;;;;;;7.53;3.73;;;11.90;99.90;;;;;;5074149;28;20312;-77
2022/09/17 02:44:50;;;;;;;9.30;5.00;;;11.90;99.90;;;;;;5074157;28;20807;-78
2022/09/17 02:47:37;;;;;;;8.70;3.23;;;11.90;99.90;;;;;;5073339;28;20891;-78
2022/09/17 02:50:23;;;;;;;11.93;3.50;;;11.90;99.90;;;;;;5072949;28;20961;-78
2022/09/17 02:53:06;;;;;;;7.60;4.13;;;11.80;99.90;;;;;;5073261;28;20433;-78
2022/09/17 02:55:41;;;;;;;6.40;4.70;;;11.90;99.90;;;;;;5073962;28;20599;-77
2022/09/17 02:58:18;;;;;;;8.70;4.00;;;11.90;99.90;;;;;;5075853;28;20465;-77
2022/09/17 03:00:47;;;;;;;19.70;14.10;;;11.90;99.90;;;;;;5076926;28;20439;-77
2022/09/17 03:03:19;;;;;;;7.93;3.57;;;12.00;99.90;;;;;;5073372;28;20452;-77
2022/09/17 03:05:47;;;;;;;2.97;2.70;;;12.00;99.90;;;;;;5073030;28;20478;-78
2022/09/17 03:08:17;;;;;;;8.47;4.00;;;11.90;99.90;;;;;;5072924;28;20993;-78
2022/09/17 03:10:44;;;;;;;6.40;4.17;;;12.00;99.90;;;;;;5073647;28;20822;-77
2022/09/17 03:13:11;;;;;;;9.07;3.40;;;12.00;99.90;;;;;;5073958;28;20928;-77
2022/09/17 03:15:37;;;;;;;17.97;10.13;;;12.00;99.90;;;;;;5073648;28;20475;-77
2022/09/17 03:18:04;;;;;;;8.13;4.63;;;12.10;99.90;;;;;;5073279;28;20534;-78
2022/09/17 03:20:32;;;;;;;12.07;6.40;;;12.10;99.90;;;;;;5073188;28;20963;-77
2022/09/17 03:22:59;;;;;;;5.63;3.37;;;12.10;99.90;;;;;;5073112;28;20940;-78
2022/09/17 03:25:25;;;;;;;11.53;5.33;;;12.10;99.90;;;;;;5072871;28;20473;-78
2022/09/17 03:27:52;;;;;;;8.20;3.17;;;12.10;99.90;;;;;;5073150;28;20445;-77
2022/09/17 03:30:19;;;;;;;13.70;5.80;;;12.20;99.90;;;;;;5073099;28;20441;-77
2022/09/17 03:32:46;;;;;;;6.18;2.90;;;12.20;99.90;;;;;;5072313;28;20442;-77
2022/09/17 03:35:13;;;;;;;10.93;5.10;;;12.20;99.90;;;;;;5074621;28;20313;-78
2022/09/17 03:37:41;;;;;;;5.30;2.77;;;12.20;99.90;;;;;;5073962;28;20473;-77
2022/09/17 03:40:09;;;;;;;9.50;2.90;;;12.30;99.90;;;;;;5077718;28;20460;-77
2022/09/17 03:42:35;;;;;;;7.60;3.10;;;12.20;99.90;;;;;;5073720;28;20457;-77
2022/09/17 03:45:02;;;;;;;5.33;3.50;;;12.20;99.90;;;;;;5072968;28;20465;-77
2022/09/17 03:47:29;;;;;;;8.52;3.17;;;12.20;99.90;;;;;;5072245;28;20441;-77
2022/09/17 03:49:55;;;;;;;6.43;2.57;;;12.20;99.90;;;;;;5072204;28;20202;-77
2022/09/17 03:52:22;;;;;;;5.90;2.20;;;12.30;99.90;;;;;;5072854;28;20441;-77
2022/09/17 03:54:50;;;;;;;8.40;4.20;;;12.30;99.90;;;;;;5074477;28;20480;-78
2022/09/17 03:57:17;;;;;;;8.53;3.20;;;12.30;99.90;;;;;;5076205;28;20480;-78
2022/09/17 03:59:43;;;;;;;8.73;3.50;;;12.30;99.90;;;;;;5076017;28;20444;-77
2022/09/17 04:02:10;;;;;;;2.83;2.53;;;12.30;99.90;;;;;;5076335;28;20993;-78
2022/09/17 04:04:37;;;;;;;3.90;3.43;;;12.40;99.90;;;;;;5075712;28;21006;-77
2022/09/17 04:07:05;;;;;;;3.37;2.43;;;12.40;99.90;;;;;;5075775;28;20452;-77
2022/09/17 04:09:32;;;;;;;11.57;4.07;;;12.40;99.90;;;;;;5076542;28;20498;-77
2022/09/17 04:12:00;;;;;;;5.93;3.00;;;12.30;99.90;;;;;;5076012;28;20460;-77
2022/09/17 04:14:26;;;;;;;7.67;4.27;;;12.30;99.90;;;;;;5076275;28;20551;-77
2022/09/17 04:16:53;;;;;;;7.30;4.77;;;12.40;99.90;;;;;;5076750;28;20931;-77
2022/09/17 04:19:20;;;;;;;6.27;3.40;;;12.40;99.90;;;;;;5075796;28;20556;-77
2022/09/17 04:21:46;;;;;;;9.40;5.60;;;12.40;99.90;;;;;;5076271;28;20815;-77
2022/09/17 04:24:13;;;;;;;6.13;3.10;;;12.40;99.90;;;;;;5075730;28;20472;-77
2022/09/17 04:26:40;;;;;;;8.90;5.50;;;12.40;99.90;;;;;;5075517;28;20448;-77
2022/09/17 04:29:08;;;;;;;7.47;3.97;;;12.40;99.90;;;;;;5075796;28;20471;-79
2022/09/17 04:31:35;;;;;;;22.67;10.10;;;12.40;99.90;;;;;;5078035;28;20874;-79
2022/09/17 04:34:02;;;;;;;9.90;4.80;;;12.30;99.90;;;;;;5077145;28;20473;-77
2022/09/17 04:36:29;;;;;;;14.33;6.07;;;12.30;99.90;;;;;;5076169;28;20447;-77
2022/09/17 04:38:55;;;;;;;13.73;6.03;;;12.30;99.90;;;;;;5075722;28;20481;-78
2022/09/17 04:41:22;;;;;;;8.20;3.87;;;12.30;99.90;;;;;;5079647;28;20441;-78
2022/09/17 04:43:49;;;;;;;12.13;4.57;;;12.40;99.90;;;;;;5076513;28;20472;-77
2022/09/17 04:46:17;;;;;;;7.67;4.13;;;12.40;99.90;;;;;;5076928;28;20459;-78
2022/09/17 04:48:43;;;;;;;8.73;2.93;;;12.40;99.90;;;;;;5075398;28;20448;-78
2022/09/17 04:51:11;;;;;;;5.97;2.70;;;12.40;99.90;;;;;;5075208;28;20445;-78
2022/09/17 04:53:38;;;;;;;7.53;3.00;;;12.60;99.90;;;;;;5076384;28;20449;-78
2022/09/17 04:56:05;;;;;;;14.13;3.70;;;12.40;99.90;;;;;;5075550;28;20794;-77
2022/09/17 04:58:31;;;;;;;7.63;3.63;;;12.40;99.90;;;;;;5077091;28;21002;-78
2022/09/17 05:00:58;;;;;;;9.10;3.13;;;12.40;99.90;;;;;;5077497;28;20457;-78
2022/09/17 05:03:26;;;;;;;8.40;5.07;;;12.40;99.90;;;;;;5076237;28;20506;-77
2022/09/17 05:05:53;;;;;;;7.80;4.63;;;12.70;99.90;;;;;;5074442;28;20502;-78
2022/09/17 05:08:21;;;;;;;12.23;6.17;;;12.40;99.90;;;;;;5074751;28;20451;-78
2022/09/17 05:10:50;;;;;;;25.23;4.80;;;12.40;99.90;;;;;;5074523;28;20967;-77
2022/09/17 05:13:17;;;;;;;8.50;4.37;;;12.30;99.90;;;;;;5074988;28;20890;-78
2022/09/17 05:15:43;;;;;;;8.03;3.20;;;12.30;99.90;;;;;;5074995;28;20880;-77
2022/09/17 05:18:10;;;;;;;6.00;3.20;;;12.30;99.90;;;;;;5074940;28;20485;-77
2022/09/17 05:20:38;;;;;;;10.77;3.97;;;12.30;99.90;;;;;;5074722;28;20954;-77
2022/09/17 05:23:05;;;;;;;9.60;3.43;;;12.30;99.90;;;;;;5075151;28;20445;-77
2022/09/17 05:25:32;;;;;;;8.40;3.40;;;12.30;99.90;;;;;;5074989;28;20469;-77
2022/09/17 05:28:00;;;;;;;6.33;2.90;;;12.30;99.90;;;;;;5075077;28;20818;-77
2022/09/17 05:30:26;;;;;;;6.47;2.90;;;12.30;99.90;;;;;;5074853;28;20448;-77
2022/09/17 05:32:59;;;;;;;4.73;2.40;;;12.30;99.90;;;;;;5074578;28;20455;-77
2022/09/17 05:35:25;;;;;;;6.40;2.70;;;12.30;99.90;;;;;;5074713;28;20543;-78
2022/09/17 05:37:57;;;;;;;4.47;2.70;;;12.40;99.90;;;;;;5074497;28;20476;-79
2022/09/17 05:40:24;;;;;;;6.73;3.30;;;12.50;99.90;;;;;;5075115;28;20429;-77
2022/09/17 05:42:50;;;;;;;6.50;3.07;;;12.40;99.90;;;;;;5074594;28;20467;-77
2022/09/17 05:45:17;;;;;;;7.60;3.13;;;12.50;99.90;;;;;;5074893;28;20884;-77
2022/09/17 05:47:46;;;;;;;5.43;2.70;;;12.50;99.90;;;;;;5074436;28;20440;-77
2022/09/17 05:50:13;;;;;;;6.47;2.20;;;12.60;99.90;;;;;;5074203;28;20945;-77
2022/09/17 05:52:40;;;;;;;14.67;4.30;;;12.50;99.90;;;;;;5074502;28;20453;-77
2022/09/17 05:55:08;;;;;;;9.10;3.13;;;12.50;99.90;;;;;;5073993;28;20485;-78
2022/09/17 05:57:35;;;;;;;3.93;2.27;;;12.60;99.90;;;;;;5073516;28;20998;-78
2022/09/17 06:00:02;;;;;;;7.67;2.90;;;12.70;99.90;;;;;;5074015;28;20475;-78
2022/09/17 06:02:29;;;;;;;5.40;2.60;;;12.70;99.90;;;;;;5073844;28;20456;-79
2022/09/17 06:04:59;;;;;;;5.43;3.40;;;12.70;99.90;;;;;;5074964;28;20465;-77
2022/09/17 06:07:26;;;;;;;7.30;2.50;;;12.70;99.90;;;;;;5075102;28;20791;-77
2022/09/17 06:09:53;;;;;;;5.50;3.73;;;12.80;99.90;;;;;;5074635;28;20449;-77
2022/09/17 06:12:21;;;;;;;6.33;3.40;;;12.70;99.90;;;;;;5075651;28;20475;-77
2022/09/17 06:14:47;;;;;;;11.40;4.10;;;12.60;99.90;;;;;;5074968;28;20585;-77
2022/09/17 06:17:14;;;;;;;12.27;3.77;;;12.50;99.90;;;;;;5073270;28;20517;-78
2022/09/17 06:19:41;;;;;;;13.00;4.00;;;12.50;99.90;;;;;;5077015;28;20480;-78
2022/09/17 06:22:08;;;;;;;10.13;3.67;;;12.40;99.90;;;;;;5075783;28;20784;-78
2022/09/17 06:24:34;;;;;;;5.00;3.97;;;12.50;99.90;;;;;;5074199;28;20468;-78
2022/09/17 06:27:01;;;;;;;10.83;4.70;;;12.50;99.90;;;;;;5074664;28;20449;-77
2022/09/17 06:29:29;;;;;;;10.60;4.80;;;12.50;99.90;;;;;;5073365;28;20441;-78
2022/09/17 06:31:55;;;;;;;9.63;4.53;;;12.60;99.90;;;;;;5073430;28;20449;-78
2022/09/17 06:34:22;;;;;;;14.63;4.00;;;12.50;99.90;;;;;;5073314;28;20476;-77
2022/09/17 06:36:49;;;;;;;5.20;3.80;;;12.50;99.90;;;;;;5073434;28;20448;-78
2022/09/17 06:39:16;;;;;;;11.17;4.13;;;12.50;99.90;;;;;;5075811;28;20476;-78
2022/09/17 06:41:43;;;;;;;11.47;2.83;;;12.50;99.90;;;;;;5075748;28;20445;-78
2022/09/17 06:44:09;;;;;;;13.23;4.00;;;12.50;99.90;;;;;;5075501;28;20987;-78
2022/09/17 06:46:37;;;;;;;7.87;4.63;;;12.60;99.90;;;;;;5074004;28;20476;-78
2022/09/17 06:49:04;;;;;;;12.10;4.07;;;12.50;99.90;;;;;;5076953;28;20449;-78
2022/09/17 06:51:31;;;;;;;12.27;4.77;;;12.60;99.90;;;;;;5073661;28;20448;-78
2022/09/17 06:53:58;;;;;;;14.40;6.13;;;14.60;99.90;;;;;;5077174;28;20476;-78
2022/09/17 06:56:24;;;;;;;8.03;3.90;;;12.70;99.90;;;;;;5073608;28;20528;-78
2022/09/17 06:58:51;;;;;;;9.23;4.97;;;12.70;99.90;;;;;;5075959;28;20481;-78
2022/09/17 07:01:20;;;;;;;9.27;3.50;;;12.70;99.90;;;;;;5073258;28;21031;-77
2022/09/17 07:03:48;;;;;;;12.43;4.10;;;12.70;99.90;;;;;;5073301;28;20464;-77
2022/09/17 07:06:15;;;;;;;11.33;3.30;;;12.70;99.90;;;;;;5075823;28;20445;-78
2022/09/17 07:08:44;;;;;;;15.63;6.83;;;12.70;99.90;;;;;;5079152;28;20784;-78
2022/09/17 07:11:10;;;;;;;6.50;3.63;;;12.70;99.90;;;;;;5076202;28;20444;-78
2022/09/17 07:13:37;;;;;;;16.87;3.60;;;13.10;99.90;;;;;;5072853;28;20957;-77
2022/09/17 07:16:05;;;;;;;11.30;4.80;;;12.80;99.90;;;;;;5073132;28;20453;-77
2022/09/17 07:18:32;;;;;;;13.17;4.67;;;12.80;99.90;;;;;;5073295;28;20480;-78
2022/09/17 07:21:04;;;;;;;16.07;3.90;;;12.80;99.90;;;;;;5075840;28;20445;-79
2022/09/17 07:23:33;;;;;;;7.97;3.70;;;12.80;99.90;;;;;;5073897;28;20429;-78
2022/09/17 07:26:01;;;;;;;7.73;3.90;;;12.80;99.90;;;;;;5077540;28;20445;-78
2022/09/17 07:28:28;;;;;;;21.17;4.83;;;12.80;99.90;;;;;;5074668;28;20510;-78
2022/09/17 07:30:56;;;;;;;11.13;3.60;;;12.90;99.90;;;;;;5077403;28;20445;-78
2022/09/17 07:33:25;;;;;;;13.53;4.13;;;13.00;99.90;;;;;;5080483;28;20865;-78
2022/09/17 07:35:55;;;;;;;8.20;3.00;;;13.10;99.90;;;;;;5077084;28;20819;-78
2022/09/17 07:38:23;;;;;;;20.47;4.83;;;13.20;99.90;;;;;;5077071;28;20480;-77
2022/09/17 07:40:56;;;;;;;13.37;3.83;;;13.20;99.90;;;;;;5076890;28;20877;-77
2022/09/17 07:43:26;;;;;;;12.83;2.77;;;13.30;99.90;;;;;;5077037;28;20908;-76
2022/09/17 07:45:53;;;;;;;11.33;4.03;;;13.30;99.90;;;;;;5077913;28;20455;-78
2022/09/17 07:48:21;;;;;;;9.30;4.17;;;13.30;99.90;;;;;;5077802;28;20483;-78
2022/09/17 07:50:48;;;;;;;14.37;3.40;;;13.30;99.90;;;;;;5076564;28;20448;-77
2022/09/17 07:53:16;;;;;;;10.97;3.57;;;13.40;99.90;;;;;;5076234;28;20494;-78
2022/09/17 07:55:51;;;;;;;9.03;3.60;;;13.40;99.90;;;;;;5088552;22;20491;-72
2022/09/17 07:58:17;;;;;;;13.87;3.20;;;13.40;99.90;;;;;;5076023;28;20464;-74
2022/09/17 08:00:45;;;;;;;8.43;2.87;;;13.50;99.90;;;;;;5076120;28;20474;-73
2022/09/17 08:03:11;;;;;;;5.83;3.03;;;13.60;99.90;;;;;;5076110;28;20449;-73
2022/09/17 08:05:38;;;;;;;8.87;3.20;;;13.60;99.90;;;;;;5075560;28;20472;-73
2022/09/17 08:08:05;;;;;;;7.20;3.40;;;13.70;99.90;;;;;;5075977;28;20796;-74
2022/09/17 08:10:32;;;;;;;12.83;3.80;;;13.70;99.90;;;;;;5075950;28;20444;-73
2022/09/17 08:13:02;;;;;;;14.50;4.37;;;13.70;99.90;;;;;;5075963;28;20448;-74
2022/09/17 08:15:29;;;;;;;7.67;2.80;;;13.70;99.90;;;;;;5075907;28;20460;-72
2022/09/17 08:17:56;;;;;;;9.10;2.80;;;13.70;99.90;;;;;;5075669;28;20453;-73
2022/09/17 08:20:24;;;;;;;5.07;3.10;;;13.70;99.90;;;;;;5075649;28;20492;-73
2022/09/17 08:22:58;;;;;;;13.63;4.03;;;13.60;99.90;;;;;;5075679;28;20893;-72
2022/09/17 08:25:25;;;;;;;9.90;3.17;;;13.70;99.90;;;;;;5075612;28;20831;-73
2022/09/17 08:27:53;;;;;;;9.60;3.00;;;13.70;99.90;;;;;;5075557;28;20445;-72
2022/09/17 08:30:21;;;;;;;12.50;4.23;;;13.70;99.90;;;;;;5075990;28;20441;-72
2022/09/17 08:32:48;;;;;;;15.17;3.33;;;13.80;99.90;;;;;;5075270;28;20498;-72
2022/09/17 08:35:16;;;;;;;13.60;3.40;;;13.80;99.90;;;;;;5074968;28;20487;-72
2022/09/17 08:37:43;;;;;;;13.53;3.13;;;13.80;99.90;;;;;;5074926;28;20456;-72
2022/09/17 08:40:16;;;;;;;8.67;3.87;;;13.90;99.90;;;;;;5074060;28;20812;-72
2022/09/17 08:42:53;;;;;;;15.80;4.90;;;14.00;99.90;;;;;;5074906;28;20433;-72
2022/09/17 08:45:21;;;;;;;9.70;5.97;;;14.00;99.90;;;;;;5075015;28;20475;-72
2022/09/17 08:47:49;;;;;;;8.10;3.63;;;14.10;99.90;;;;;;5075067;28;20440;-72
2022/09/17 08:50:19;;;;;;;8.67;2.70;;;14.10;99.90;;;;;;5075028;28;20946;-72
2022/09/17 08:53:09;;;;;;;10.10;2.80;;;14.20;99.90;;;;;;5075419;28;20433;-72
2022/09/17 08:55:40;;;;;;;10.50;2.80;;;14.20;99.90;;;;;;5066610;28;20571;-72
2022/09/17 08:58:34;;;;;;;5.00;2.40;;;14.30;99.90;;;;;;5075219;28;20433;-73
2022/09/17 09:01:14;;;;;;;12.00;3.93;;;14.40;99.90;;;;;;5075508;28;20425;-73
2022/09/17 09:03:58;;;;;;;8.27;3.50;;;14.50;99.90;;;;;;5075099;28;20814;-73
2022/09/17 09:06:29;;;;;;;7.23;3.17;;;14.50;99.90;;;;;;5074497;28;20527;-72
2022/09/17 09:09:00;;;;;;;10.70;2.77;;;14.50;99.90;;;;;;5074719;28;20429;-74
2022/09/17 09:11:29;;;;;;;6.10;2.33;;;14.60;99.90;;;;;;5074745;28;20425;-73
2022/09/17 09:14:04;;;;;;;8.03;2.70;;;14.30;1.00;;;;;;5074140;28;20449;-73
2022/09/17 09:16:34;;;;;;;15.07;4.70;;;14.50;1.00;;;;;;5074245;28;20457;-73
2022/09/17 09:19:10;;;;;;;11.77;2.43;;;14.40;1.00;;;;;;5074121;28;20522;-73
2022/09/17 09:21:45;;;;;;;7.87;3.30;;;14.30;1.00;;;;;;5074161;28;20436;-73
2022/09/17 09:24:22;;;;;;;11.07;2.40;;;14.30;1.00;;;;;;5074496;28;21009;-73
2022/09/17 09:26:56;;;;;;;6.70;1.73;;;14.30;1.00;;;;;;5074932;28;20436;-73
2022/09/17 09:29:42;;;;;;;8.30;3.37;;;14.40;1.00;;;;;;5077476;28;20482;-73
2022/09/17 09:32:23;;;;;;;12.87;5.17;;;14.50;99.90;;;;;;5079750;28;20437;-73
2022/09/17 09:34:51;;;;;;;14.60;2.83;;;14.60;99.90;;;;;;5081726;28;20471;-73
2022/09/17 09:37:21;;;;;;;6.50;2.73;;;14.70;99.90;;;;;;5075499;28;20449;-73
2022/09/17 09:39:51;;;;;;;10.37;2.63;;;14.70;1.00;;;;;;5074373;28;20465;-73
2022/09/17 09:42:27;;;;;;;9.50;2.83;;;14.60;1.00;;;;;;5074020;28;20441;-73
2022/09/17 09:44:54;;;;;;;5.03;2.43;;;14.50;1.00;;;;;;5074621;28;20555;-74
2022/09/17 09:47:35;;;;;;;7.27;2.50;;;14.50;1.00;;;;;;5073791;28;20453;-73
2022/09/17 09:50:28;;;;;;;7.30;1.93;;;14.50;99.90;;;;;;5073433;28;20901;-73
2022/09/17 09:53:05;;;;;;;6.80;2.17;;;14.50;99.90;;;;;;5073820;28;20768;-74
2022/09/17 09:55:43;;;;;;;7.00;2.70;;;14.40;99.90;;;;;;5073239;28;20475;-73
2022/09/17 09:58:21;;;;;;;15.40;10.80;;;14.20;1.00;;;;;;5073692;28;20794;-72
2022/09/17 10:00:48;;;;;;;6.00;3.60;;;13.80;99.90;;;;;;5073271;28;21066;-73
2022/09/17 10:03:20;;;;;;;5.53;3.53;;;13.30;99.90;;;;;;5074299;28;20451;-73
2022/09/17 10:05:54;;;;;;;11.93;3.47;;;12.90;99.90;;;;;;5073350;28;20576;-73
2022/09/17 10:08:20;;;;;;;8.00;2.90;;;12.60;99.90;;;;;;5073447;28;20508;-72
2022/09/17 10:10:59;;;;;;;6.40;2.93;;;12.60;99.90;;;;;;5073390;28;20445;-72
2022/09/17 10:13:28;;;;;;;7.77;3.87;;;12.60;99.90;;;;;;5073475;28;20448;-72
2022/09/17 10:15:55;;;;;;;5.47;2.60;;;12.70;99.90;;;;;;5073103;28;20472;-72
2022/09/17 10:18:24;;;;;;;17.77;4.07;;;12.90;99.90;;;;;;5074195;28;20449;-73
2022/09/17 10:20:53;;;;;;;10.47;4.40;;;13.10;99.90;;;;;;5073864;28;20492;-73
2022/09/17 10:23:21;;;;;;;3.87;2.10;;;13.40;99.90;;;;;;5073577;28;21008;-73
2022/09/17 10:25:49;;;;;;;10.03;2.77;;;13.50;99.90;;;;;;5073565;28;20473;-73
2022/09/17 10:28:41;;;;;;;8.70;2.37;;;13.70;99.90;;;;;;5073649;28;20444;-74
2022/09/17 10:31:09;;;;;;;7.03;1.60;;;13.90;99.90;;;;;;5073147;28;20926;-73
2022/09/17 10:33:40;;;;;;;7.40;2.27;;;14.00;1.00;;;;;;5073398;28;20452;-73
2022/09/17 10:36:08;;;;;;;6.03;2.63;;;14.10;1.00;;;;;;5072794;28;20476;-74
2022/09/17 10:38:38;;;;;;;5.37;2.50;;;14.20;1.00;;;;;;5073277;28;20440;-73
2022/09/17 10:41:20;;;;;;;9.07;4.03;;;14.20;99.90;;;;;;5073007;28;20484;-73
2022/09/17 10:43:47;;;;;;;8.67;2.37;;;;;;;;;;5072568;28;20991;-73
2022/09/17 10:46:17;;;;;;;7.40;2.50;;;14.00;99.90;;;;;;5073144;28;20458;-74
2022/09/17 10:48:56;;;;;;;7.50;2.00;;;13.80;99.90;;;;;;5074107;28;20832;-73
2022/09/17 10:51:25;;;;;;;14.43;4.00;;;13.50;1.00;;;;;;5073173;28;20425;-73
2022/09/17 10:54:17;;;;;;;11.23;2.80;;;13.50;3.80;;;;;;5072857;28;20927;-73
2022/09/17 10:56:49;;;;;;;8.60;2.90;;;13.40;41.80;;;;;;5073039;28;20886;-74
2022/09/17 10:59:41;;;;;;;6.20;2.80;;;13.50;1.70;;;;;;5073158;28;20464;-73
2022/09/17 11:02:36;;;;;;;7.20;2.77;;;13.60;1.00;;;;;;5073150;28;20433;-74
2022/09/17 11:05:19;;;;;;;3.70;2.17;;;13.70;1.00;;;;;;5075680;28;20475;-73
2022/09/17 11:07:53;;;;;;;6.70;2.83;;;13.80;99.90;;;;;;5077433;28;20440;-73
2022/09/17 11:10:25;;;;;;;16.20;3.27;;;13.80;99.90;;;;;;5077109;28;20437;-74
2022/09/17 11:13:04;;;;;;;5.50;2.00;;;13.90;1.00;;;;;;5077151;28;20936;-74
2022/09/17 11:15:45;;;;;;;7.07;2.17;;;14.00;99.90;;;;;;5077516;28;20471;-74
2022/09/17 11:18:36;;;;;;;5.37;1.97;;;13.90;99.90;;;;;;5076936;28;20448;-73
2022/09/17 11:21:35;;;;;;;7.80;1.97;;;13.90;1.00;;;;;;5073454;28;21063;-74
2022/09/17 11:24:32;;;;;;;10.77;2.20;;;14.00;32.50;;;;;;5061935;28;20509;-74
2022/09/17 11:27:13;;;;;;;4.10;2.13;;;14.10;99.90;;;;;;5077208;28;20429;-74
2022/09/17 11:30:05;;;;;;;4.83;2.43;;;14.30;99.90;;;;;;5077763;28;20449;-76
2022/09/17 11:33:03;;;;;;;7.90;2.20;;;14.50;1.00;;;;;;5077051;28;20482;-73
2022/09/17 11:35:33;;;;;;;6.50;1.67;;;14.60;99.90;;;;;;5076912;28;20471;-73
2022/09/17 11:38:05;;;;;;;7.40;2.37;;;14.70;99.90;;;;;;5076810;28;20471;-73
2022/09/17 11:40:38;;;;;;;5.43;2.20;;;15.00;1.00;;;;;;5076486;28;20816;-75
2022/09/17 11:43:16;;;;;;;6.90;2.87;;;14.70;99.90;;;;;;5076464;28;20433;-73
2022/09/17 11:45:51;;;;;;;4.40;2.27;;;14.60;5.70;;;;;;5077299;28;20468;-73
2022/09/17 11:48:22;;;;;;;3.93;2.10;;;14.60;23.70;;;;;;5076416;28;20428;-74
2022/09/17 11:50:59;;;;;;;5.00;1.70;;;14.70;1.00;;;;;;5076750;28;20551;-74
2022/09/17 11:53:31;;;;;;;4.40;2.30;;;14.70;99.90;;;;;;5076612;28;20414;-74
2022/09/17 11:56:03;;;;;;;10.60;3.23;;;14.60;99.90;;;;;;5076207;28;20472;-73
2022/09/17 11:58:39;;;;;;;15.93;4.70;;;14.60;99.90;;;;;;5076960;28;20437;-74
2022/09/17 12:01:12;;;;;;;4.40;2.03;;;14.80;99.90;;;;;;5076540;28;20491;-75
2022/09/17 12:03:43;;;;;;;5.63;1.83;;;14.90;99.90;;;;;;5077664;28;20429;-73
2022/09/17 12:06:16;;;;;;;6.33;2.57;;;15.10;1.00;;;;;;5077453;28;20469;-74
2022/09/17 12:08:55;;;;;;;3.13;1.50;;;15.10;1.00;;;;;;5077039;28;20433;-73
2022/09/17 12:11:32;;;;;;;5.90;2.00;;;15.00;99.90;;;;;;5077023;28;20459;-74
2022/09/17 12:14:06;;;;;;;4.03;1.50;;;15.40;99.90;;;;;;5076907;28;20527;-73
2022/09/17 12:16:37;;;;;;;5.33;1.70;;;15.40;99.90;;;;;;5075076;28;20777;-72
2022/09/17 12:19:14;;;;;;;7.53;1.67;;;15.50;99.90;;;;;;5076502;28;20900;-73
2022/09/17 12:21:45;;;;;;;3.97;2.90;;;15.50;99.90;;;;;;5076127;28;20429;-73
2022/09/17 12:24:18;;;;;;;4.77;2.03;;;15.40;99.90;;;;;;5076063;28;20822;-73
2022/09/17 12:27:05;;;;;;;8.73;3.10;;;15.40;99.90;;;;;;5076124;28;20417;-73
2022/09/17 12:30:02;;;;;;;4.50;2.00;;;15.40;99.90;;;;;;5075999;28;20429;-73
2022/09/17 12:32:42;;;;;;;3.53;1.80;;;15.10;1.00;;;;;;5076098;28;20428;-73
2022/09/17 12:35:28;;;;;;;2.60;1.90;;;14.90;1.00;;;;;;5077600;28;20475;-74
2022/09/17 12:38:09;;;;;;;2.30;1.40;;;14.70;1.00;;;;;;5076449;28;20429;-75
2022/09/17 12:40:41;;;;;;;1.30;1.20;;;14.30;99.90;;;;;;5076189;28;20456;-74
2022/09/17 12:43:33;;;;;;;4.30;2.57;;;14.50;1.00;;;;;;5076771;28;20441;-73
2022/09/17 12:46:13;;;;;;;2.80;2.00;;;14.60;1.00;;;;;;5075940;28;20465;-73
2022/09/17 12:49:00;;;;;;;4.50;1.30;;;15.30;1.00;;;;;;5075285;28;20428;-74
2022/09/17 12:51:49;;;;;;;4.60;1.47;;;15.00;1.00;;;;;;5042092;28;20481;-74
2022/09/17 12:54:30;;;;;;;5.20;2.30;;;15.20;1.00;;;;;;5075294;28;20830;-73
2022/09/17 12:57:03;;;;;;;5.30;2.33;;;15.30;99.90;;;;;;5075471;28;20459;-73
2022/09/17 12:59:35;;;;;;;2.87;1.57;;;15.40;99.90;;;;;;5075403;28;20479;-73
2022/09/17 13:02:35;;;;;;;7.20;2.23;;;15.50;99.90;;;;;;5075636;28;20437;-74
2022/09/17 13:05:30;;;;;;;5.30;1.80;;;15.40;99.90;;;;;;5075239;28;20472;-73
2022/09/17 13:08:38;;;;;;;5.00;2.27;;;15.40;99.90;;;;;;5072949;28;20452;-74
2022/09/17 13:11:38;;;;;;;5.80;2.20;;;15.50;99.90;;;;;;5013739;28;20450;-73